Terril, Iowa
Current Conditions -  °F | °C
As of 10:22 AM on Thursday 18 Dec 2014 (Local Time) from KEST Reporting Station
Overcast Overcast  
Wind Chill: 11°   Ceiling: 7000
Heat Index: 18°   Visibility: 8mi
Dew Point: 16°   Wind: 5mph
Humidity: 92%   Direction: 180°S
Pressure: 30.26"   Gusts: NA
Location:  43.31°N, 94.97°W
Report Text: KEST 181622Z AUTO 18004KT 8SM FEW008 OVC070 M08/M09 A3026 RMK AO2 T10781089
Loading
Personal Weather Stations






























Interactive Weather Map New forecast layout! Learn more

10-Day Weather Forecast

Advertisements
Track Severe Weather on mobile